createdAt,value
2023-04-11T06:49:17.691Z,70.80
2023-04-11T06:51:50.618Z,70.58
2023-04-11T06:54:24.042Z,70.95
2023-04-11T06:56:57.627Z,69.67
2023-04-11T06:59:30.494Z,69.43
2023-04-11T07:02:03.461Z,69.03
2023-04-11T07:04:37.932Z,68.95
2023-04-11T07:07:11.003Z,66.80
2023-04-11T07:09:43.896Z,66.05
2023-04-11T07:12:16.683Z,66.33
2023-04-11T07:14:49.500Z,64.96
2023-04-11T07:17:22.283Z,64.63
2023-04-11T07:19:56.483Z,65.37
2023-04-11T07:22:30.225Z,65.88
2023-04-11T07:25:04.656Z,66.28
2023-04-11T07:27:37.477Z,65.54
2023-04-11T07:30:11.317Z,65.34
2023-04-11T07:32:44.195Z,64.06
2023-04-11T07:35:18.423Z,64.11
2023-04-11T07:37:53.565Z,63.55
2023-04-11T07:40:26.432Z,63.79
2023-04-11T07:42:59.272Z,64.28
2023-04-11T07:45:33.360Z,64.34
2023-04-11T07:48:06.634Z,63.09
2023-04-11T07:50:41.210Z,63.89
2023-04-11T07:53:14.176Z,63.49
2023-04-11T07:55:47.021Z,64.81
2023-04-11T07:58:19.923Z,64.90
2023-04-11T08:00:53.769Z,63.90
2023-04-11T08:03:28.138Z,64.06
2023-04-11T08:06:02.656Z,64.05
2023-04-11T08:08:35.562Z,63.94
2023-04-11T08:11:08.963Z,64.69
2023-04-11T08:13:41.841Z,64.59
2023-04-11T08:16:16.334Z,64.89
2023-04-11T08:18:49.590Z,63.94
2023-04-11T08:21:24.947Z,64.66
2023-04-11T08:23:58.389Z,62.97
2023-04-11T08:26:31.829Z,62.82
2023-04-11T08:29:04.777Z,62.80
2023-04-11T08:31:38.060Z,62.05
2023-04-11T08:34:10.977Z,62.27
2023-04-11T08:36:45.521Z,63.49
2023-04-11T08:39:18.361Z,65.16
2023-04-11T08:41:51.638Z,71.44
2023-04-11T08:44:24.511Z,73.79
2023-04-11T08:46:57.286Z,79.43
2023-04-11T08:49:30.163Z,83.57
2023-04-11T08:52:04.446Z,85.19
2023-04-11T08:54:37.470Z,85.51
2023-04-11T08:57:14.894Z,84.90
2023-04-11T08:59:51.078Z,80.88
2023-04-11T09:02:24.289Z,82.00
2023-04-11T09:04:58.921Z,82.55
2023-04-11T09:07:48.629Z,80.16
2023-04-11T09:10:22.816Z,79.43
2023-04-11T09:12:56.335Z,80.43
2023-04-11T09:15:31.571Z,80.85
2023-04-11T09:18:04.654Z,79.83
2023-04-11T09:20:37.538Z,77.89
2023-04-11T09:23:24.303Z,80.37
2023-04-11T09:25:58.664Z,80.15
2023-04-11T09:28:40.786Z,80.61
2023-04-11T09:31:14.081Z,82.21
2023-04-11T09:33:54.801Z,83.10
2023-04-11T09:36:28.398Z,84.08
2023-04-11T09:39:17.351Z,85.76
2023-04-11T09:41:50.220Z,84.12
2023-04-11T09:44:43.592Z,85.00
2023-04-11T09:47:16.656Z,81.68
2023-04-11T09:49:50.044Z,81.38
2023-04-11T09:52:23.022Z,80.99
2023-04-11T09:54:57.370Z,81.83
2023-04-11T09:57:33.250Z,79.92
2023-04-11T10:00:14.366Z,81.55
2023-04-11T10:02:50.126Z,79.42
2023-04-11T10:05:27.495Z,80.23
2023-04-11T10:08:05.649Z,77.39
2023-04-11T10:10:43.326Z,76.80
2023-04-11T10:13:40.721Z,75.17
2023-04-11T10:16:15.146Z,73.22
2023-04-11T10:19:21.786Z,73.66
2023-04-11T10:21:54.644Z,71.85
2023-04-11T10:24:27.581Z,64.96
2023-04-11T10:27:03.629Z,66.28
2023-04-11T10:29:51.636Z,58.34
2023-04-11T10:32:25.797Z,59.48
2023-04-11T10:35:23.767Z,59.59
2023-04-11T10:37:56.743Z,58.33
2023-04-11T10:40:29.752Z,54.90
2023-04-11T10:43:20.734Z,57.74
2023-04-11T10:46:17.739Z,55.52
2023-04-11T10:49:01.494Z,53.24
2023-04-11T10:51:35.832Z,52.60
2023-04-11T10:54:25.701Z,49.68
2023-04-11T10:56:59.164Z,51.97
2023-04-11T11:00:13.950Z,54.78
2023-04-11T11:02:47.465Z,52.60
2023-04-11T11:05:22.323Z,51.79
2023-04-11T11:07:55.350Z,52.18
2023-04-11T11:10:41.324Z,50.69
2023-04-11T11:13:16.118Z,50.43
2023-04-11T11:15:51.511Z,47.42
2023-04-11T11:18:24.367Z,45.49
2023-04-11T11:20:57.210Z,45.95
2023-04-11T11:23:30.732Z,48.99
2023-04-11T11:26:03.866Z,47.88
2023-04-11T11:28:47.647Z,46.29
2023-04-11T11:31:22.302Z,42.74
2023-04-11T11:33:58.291Z,44.32
2023-04-11T11:36:40.715Z,43.17
2023-04-11T11:39:15.436Z,44.41
2023-04-11T11:41:48.409Z,43.19
2023-04-11T11:44:25.181Z,45.81
2023-04-11T11:47:08.912Z,48.70
2023-04-11T11:49:46.224Z,44.69
2023-04-11T11:52:32.908Z,44.12
2023-04-11T11:55:11.192Z,46.45
2023-04-11T11:57:45.711Z,45.06
2023-04-11T12:00:25.207Z,43.68
2023-04-11T12:03:00.933Z,43.93
2023-04-11T12:05:35.284Z,44.79
2023-04-11T12:08:08.873Z,46.38
2023-04-11T12:10:43.417Z,45.94
2023-04-11T12:13:17.822Z,45.90
2023-04-11T12:15:55.942Z,44.31
2023-04-11T12:18:30.140Z,45.00
2023-04-11T12:21:02.997Z,44.27
2023-04-11T12:23:36.225Z,43.32
2023-04-11T12:26:09.003Z,41.38
2023-04-11T12:28:41.779Z,40.70
2023-04-11T12:31:14.760Z,43.62
2023-04-11T12:33:49.117Z,42.79
2023-04-11T12:36:22.666Z,42.40
2023-04-11T12:38:55.828Z,43.20
2023-04-11T12:41:31.637Z,40.98
2023-04-11T12:44:05.620Z,43.80
2023-04-11T12:46:38.532Z,41.04
2023-04-11T12:49:12.786Z,40.29
2023-04-11T12:51:45.603Z,39.84
2023-04-11T12:54:21.863Z,40.25
2023-04-11T12:56:54.706Z,40.21
2023-04-11T12:59:27.751Z,40.86
2023-04-11T13:02:00.888Z,40.51
2023-04-11T13:04:35.370Z,40.95
2023-04-11T13:07:09.977Z,43.12
2023-04-11T13:09:42.987Z,43.91
2023-04-11T13:12:15.959Z,41.50
2023-04-11T13:14:48.795Z,41.86
2023-04-11T13:17:21.680Z,40.06
2023-04-11T13:19:55.951Z,38.86
2023-04-11T13:22:28.892Z,35.89
2023-04-11T13:25:01.824Z,36.25
2023-04-11T13:27:35.048Z,33.74
2023-04-11T13:30:09.871Z,35.28
2023-04-11T13:32:43.122Z,34.12
2023-04-11T13:35:17.396Z,35.10
2023-04-11T13:37:52.013Z,35.44
2023-04-11T13:40:24.671Z,35.80
2023-04-11T13:42:57.581Z,33.08
2023-04-11T13:45:30.996Z,33.54
2023-04-11T13:48:03.950Z,35.26
2023-04-11T13:50:39.284Z,34.25
2023-04-11T13:53:12.118Z,38.33
2023-04-11T13:55:47.657Z,31.63
2023-04-11T13:58:20.468Z,31.85
2023-04-11T14:00:53.271Z,33.45
2023-04-11T14:03:27.373Z,32.13
2023-04-11T14:06:03.253Z,33.15
2023-04-11T14:08:36.858Z,34.93
2023-04-11T14:11:09.709Z,32.27
2023-04-11T14:13:42.647Z,31.20
2023-04-11T14:16:15.601Z,31.81
2023-04-11T14:18:48.541Z,29.44
2023-04-11T14:21:23.646Z,29.53
2023-04-11T14:23:56.861Z,28.04
2023-04-11T14:26:29.843Z,28.54
2023-04-11T14:29:02.690Z,28.71
2023-04-11T14:31:36.475Z,29.74
2023-04-11T14:34:09.694Z,31.99
2023-04-11T14:36:44.021Z,28.96
2023-04-11T14:39:16.885Z,30.11
2023-04-11T14:41:49.891Z,30.46
2023-04-11T14:44:22.785Z,30.21
2023-04-11T14:46:55.999Z,30.76
2023-04-11T14:49:28.896Z,32.15
2023-04-11T14:52:03.239Z,32.46
2023-04-11T14:54:36.538Z,34.18
2023-04-11T14:57:09.585Z,31.54
2023-04-11T14:59:43.931Z,32.80
2023-04-11T15:02:17.104Z,31.41
2023-04-11T15:04:50.093Z,33.75
2023-04-11T15:07:24.363Z,32.03
2023-04-11T15:09:57.179Z,31.70
2023-04-11T15:12:30.050Z,32.52
2023-04-11T15:15:03.326Z,33.62
2023-04-11T15:17:40.599Z,31.61
2023-04-11T15:20:15.281Z,33.71
2023-04-11T15:22:49.880Z,31.61
2023-04-11T15:25:23.403Z,31.28
2023-04-11T15:27:56.341Z,31.80
2023-04-11T15:30:29.486Z,28.78
2023-04-11T15:33:04.841Z,30.59
2023-04-11T15:35:51.125Z,30.69
2023-04-11T15:38:25.731Z,32.64
2023-04-11T15:41:03.454Z,32.52
2023-04-11T15:43:36.460Z,36.15
2023-04-11T15:46:10.142Z,31.47
2023-04-11T15:48:47.701Z,28.23
2023-04-11T15:51:23.469Z,28.39
2023-04-11T15:53:58.205Z,29.25
2023-04-11T15:56:33.160Z,25.84
2023-04-11T15:59:07.888Z,25.15
2023-04-11T16:01:41.472Z,26.21
2023-04-11T16:04:14.647Z,24.92
2023-04-11T16:06:47.613Z,25.94
2023-04-11T16:09:21.808Z,23.83
2023-04-11T16:11:54.812Z,26.60
2023-04-11T16:14:27.888Z,23.54
2023-04-11T16:17:01.098Z,22.45
2023-04-11T16:19:34.077Z,19.81
2023-04-11T16:22:07.318Z,22.47
2023-04-11T16:24:41.750Z,21.17
2023-04-11T16:27:14.444Z,23.40
2023-04-11T16:29:47.242Z,19.72
2023-04-11T16:32:20.138Z,20.73
2023-04-11T16:34:54.737Z,19.70
2023-04-11T16:37:28.866Z,19.94
2023-04-11T16:40:06.945Z,18.12
2023-04-11T16:42:40.402Z,18.71
2023-04-11T16:45:13.548Z,18.23
2023-04-11T16:47:46.442Z,18.54
2023-04-11T16:50:19.335Z,21.90
2023-04-11T16:52:52.195Z,16.64
2023-04-11T16:55:26.497Z,22.11
2023-04-11T16:57:59.189Z,20.77
2023-04-11T17:00:32.280Z,19.96
2023-04-11T17:03:05.556Z,17.26
2023-04-11T17:05:39.062Z,25.73
2023-04-11T17:08:12.066Z,25.66
2023-04-11T17:10:46.552Z,28.11
2023-04-11T17:13:19.478Z,29.07
2023-04-11T17:15:52.280Z,29.32
2023-04-11T17:18:26.247Z,31.94
2023-04-11T17:20:59.667Z,30.73
2023-04-11T17:23:42.407Z,34.26
2023-04-11T17:26:20.141Z,30.45
2023-04-11T17:28:53.456Z,27.32
2023-04-11T17:31:27.875Z,24.35
2023-04-11T17:34:00.761Z,23.12
2023-04-11T17:36:33.808Z,24.49
2023-04-11T17:39:07.685Z,29.33
2023-04-11T17:41:41.808Z,35.14
2023-04-11T17:44:14.940Z,31.51
2023-04-11T17:46:48.399Z,29.85
2023-04-11T17:49:21.829Z,31.08
2023-04-11T17:51:58.881Z,32.79
2023-04-11T17:54:32.529Z,32.67
2023-04-11T17:57:06.755Z,33.69
2023-04-11T17:59:40.568Z,34.92
2023-04-11T18:02:13.509Z,34.67
2023-04-11T18:04:46.454Z,36.00
2023-04-11T18:07:24.251Z,38.14
2023-04-11T18:09:57.207Z,36.23
2023-04-11T18:12:31.691Z,36.06
2023-04-11T18:15:05.793Z,38.89
2023-04-11T18:17:39.998Z,36.45
2023-04-11T18:20:15.637Z,39.17
2023-04-11T18:22:51.494Z,37.29
2023-04-11T18:25:24.786Z,39.94
2023-04-11T18:27:59.270Z,40.64
2023-04-11T18:30:32.197Z,39.40
2023-04-11T18:33:05.311Z,41.31
2023-04-11T18:35:38.240Z,42.58
2023-04-11T18:38:11.069Z,40.73
2023-04-11T18:40:43.988Z,42.25
2023-04-11T18:43:21.072Z,40.60
2023-04-11T18:45:54.077Z,42.11
2023-04-11T18:48:27.314Z,42.91
2023-04-11T18:51:00.864Z,43.07
2023-04-11T18:53:34.784Z,42.72
2023-04-11T18:56:08.052Z,42.97
2023-04-11T18:58:45.762Z,45.01
2023-04-11T19:01:19.450Z,44.75
2023-04-11T19:03:54.999Z,44.55
2023-04-11T19:06:28.334Z,45.09
2023-04-11T19:09:02.922Z,43.62
2023-04-11T19:11:38.944Z,45.37
2023-04-11T19:14:13.338Z,45.48
2023-04-11T19:16:46.782Z,47.86
2023-04-11T19:19:20.904Z,48.04
2023-04-11T19:21:54.109Z,47.41
2023-04-11T19:24:27.527Z,47.06
2023-04-11T19:27:02.885Z,47.88
2023-04-11T19:29:37.217Z,48.49
2023-04-11T19:32:12.571Z,49.35
2023-04-11T19:34:46.275Z,50.74
2023-04-11T19:37:19.419Z,51.13
2023-04-11T19:39:54.850Z,51.08
2023-04-11T19:42:30.429Z,50.78
2023-04-11T19:45:06.192Z,51.80
2023-04-11T19:47:40.243Z,52.09
2023-04-11T19:50:14.125Z,53.31
2023-04-11T19:52:47.286Z,53.52
2023-04-11T19:55:20.360Z,54.37
2023-04-11T19:57:53.204Z,53.43
2023-04-11T20:00:31.796Z,53.73
2023-04-11T20:03:05.754Z,53.45
2023-04-11T20:05:38.803Z,54.49
2023-04-11T20:08:12.940Z,53.37
2023-04-11T20:10:48.762Z,53.86
2023-04-11T20:13:22.065Z,53.95
2023-04-11T20:15:56.497Z,55.55
2023-04-11T20:18:29.335Z,56.45
2023-04-11T20:21:03.171Z,55.71
2023-04-11T20:23:36.983Z,53.43
2023-04-11T20:26:09.812Z,54.52
2023-04-11T20:28:42.886Z,55.49
2023-04-11T20:31:17.421Z,55.43
2023-04-11T20:33:50.543Z,56.51
2023-04-11T20:36:23.658Z,56.34
2023-04-11T20:38:58.018Z,56.32
2023-04-11T20:41:32.235Z,57.50
2023-04-11T20:44:05.286Z,56.16
2023-04-11T20:46:39.508Z,57.43
2023-04-11T20:49:12.614Z,57.33
2023-04-11T20:51:45.523Z,59.08
2023-04-11T20:54:18.349Z,57.65
2023-04-11T20:56:52.402Z,59.04
2023-04-11T20:59:26.208Z,59.28
2023-04-11T21:02:00.546Z,58.15
2023-04-11T21:04:33.629Z,57.10
2023-04-11T21:07:07.027Z,58.16
2023-04-11T21:09:39.969Z,58.93
2023-04-11T21:12:12.958Z,57.90
2023-04-11T21:14:45.810Z,57.44
2023-04-11T21:17:20.533Z,56.58
2023-04-11T21:19:53.218Z,56.87
2023-04-11T21:22:26.055Z,57.08
2023-04-11T21:24:59.019Z,57.63
2023-04-11T21:27:32.089Z,57.01
2023-04-11T21:30:06.217Z,58.17
2023-04-11T21:32:41.024Z,57.96
2023-04-11T21:35:13.825Z,57.20
2023-04-11T21:37:48.960Z,58.23
2023-04-11T21:40:22.192Z,57.22
2023-04-11T21:42:55.458Z,59.10
2023-04-11T21:45:28.616Z,58.54
2023-04-11T21:48:02.902Z,58.71
2023-04-11T21:50:36.757Z,58.39
2023-04-11T21:53:09.563Z,58.08
2023-04-11T21:55:46.551Z,58.16
2023-04-11T21:58:29.125Z,59.60
2023-04-11T22:01:02.945Z,59.89
2023-04-11T22:03:40.084Z,60.87
2023-04-11T22:06:12.982Z,59.36
2023-04-11T22:08:50.158Z,58.77
2023-04-11T22:11:24.236Z,58.36
2023-04-11T22:13:58.301Z,59.40
2023-04-11T22:16:31.956Z,58.95
2023-04-11T22:19:06.534Z,59.31
2023-04-11T22:21:39.308Z,59.19
2023-04-11T22:24:12.126Z,59.68
2023-04-11T22:26:48.803Z,59.60
2023-04-11T22:29:22.062Z,59.83
2023-04-11T22:31:55.018Z,59.60
2023-04-11T22:34:29.287Z,59.79
2023-04-11T22:37:02.198Z,60.88
2023-04-11T22:39:36.193Z,60.90
2023-04-11T22:42:10.818Z,60.51
2023-04-11T22:44:43.665Z,59.94
2023-04-11T22:47:16.936Z,59.77
2023-04-11T22:49:51.330Z,60.38
2023-04-11T22:52:25.793Z,60.35
2023-04-11T22:54:58.676Z,60.33
2023-04-11T22:57:31.491Z,60.68
2023-04-11T23:00:07.282Z,60.69
2023-04-11T23:02:40.653Z,60.02
2023-04-11T23:05:16.665Z,59.73
2023-04-11T23:07:49.529Z,60.57
2023-04-11T23:10:22.346Z,60.49
2023-04-11T23:12:55.161Z,61.76
2023-04-11T23:15:28.278Z,60.47
2023-04-11T23:18:01.469Z,61.23
2023-04-11T23:20:37.443Z,59.80
2023-04-11T23:23:10.273Z,59.60
2023-04-11T23:25:43.154Z,59.86
2023-04-11T23:28:16.525Z,60.26
2023-04-11T23:30:49.575Z,59.82
2023-04-11T23:33:25.528Z,58.77
2023-04-11T23:35:59.811Z,59.77
2023-04-11T23:38:32.858Z,60.82
2023-04-11T23:41:06.508Z,60.67
2023-04-11T23:43:39.329Z,60.51
2023-04-11T23:46:12.371Z,60.27
2023-04-11T23:48:46.904Z,60.70
2023-04-11T23:51:21.438Z,60.51
2023-04-11T23:53:54.691Z,60.82
2023-04-11T23:56:27.881Z,60.69
2023-04-11T23:59:01.004Z,60.79
